Time;durP1;ratioP1;P1;durP2;ratioP2;P2;SDS_P1;SDS_P2;PMS_P1;PMS_P2;Temp;Humidity;BMP_temperature;BMP_pressure;BME280_temperature;BME280_humidity;BME280_pressure;Samples;Min_cycle;Max_cycle;Signal;HPM_P1;HPM_P2
2021/05/25 00:00:24;;;;;;;2.67;0.68;;;10.10;1.00;;;;;;5042651;28;20056;-64
2021/05/25 00:03:14;;;;;;;1.13;0.60;;;10.00;1.20;;;;;;5022084;28;20443;-64
2021/05/25 00:06:02;;;;;;;1.38;0.70;;;9.90;2.30;;;;;;5044254;28;20041;-65
2021/05/25 00:08:50;;;;;;;2.20;0.85;;;9.90;2.20;;;;;;5044744;28;20059;-63
2021/05/25 00:11:58;;;;;;;1.83;0.70;;;9.80;2.90;;;;;;5039121;28;20090;-64
2021/05/25 00:14:46;;;;;;;3.00;0.60;;;9.80;3.10;;;;;;5037412;28;20504;-64
2021/05/25 00:17:37;;;;;;;2.75;0.68;;;9.70;3.30;;;;;;5033467;28;20132;-65
2021/05/25 00:20:26;;;;;;;1.20;0.75;;;9.70;4.10;;;;;;5041394;28;20175;-65
2021/05/25 00:23:14;;;;;;;1.80;0.68;;;9.70;3.90;;;;;;5040196;28;20068;-65
2021/05/25 00:26:03;;;;;;;1.23;0.73;;;9.60;3.70;;;;;;5043482;28;20143;-65
2021/05/25 00:28:51;;;;;;;0.95;0.47;;;9.60;4.50;;;;;;5037702;28;20044;-64
2021/05/25 00:31:41;;;;;;;1.40;0.80;;;9.50;4.50;;;;;;5045759;28;20435;-64
2021/05/25 00:34:28;;;;;;;3.28;0.80;;;9.50;3.20;;;;;;5041322;28;20404;-65
2021/05/25 00:37:17;;;;;;;1.40;0.75;;;9.50;3.40;;;;;;5041059;28;20049;-63
2021/05/25 00:40:07;;;;;;;0.80;0.55;;;9.50;3.50;;;;;;5049073;28;20583;-64
2021/05/25 00:42:55;;;;;;;2.25;0.70;;;9.40;3.30;;;;;;5048459;28;20130;-64
2021/05/25 00:45:43;;;;;;;1.80;0.75;;;9.40;3.80;;;;;;5042482;28;20550;-63
2021/05/25 00:48:32;;;;;;;2.85;0.65;;;9.30;4.00;;;;;;5041802;28;20087;-63
2021/05/25 00:51:20;;;;;;;1.88;0.73;;;9.30;4.30;;;;;;5042694;28;20132;-63
2021/05/25 00:54:08;;;;;;;1.35;0.82;;;9.30;3.70;;;;;;5048527;28;20037;-64
2021/05/25 00:56:57;;;;;;;1.30;0.90;;;9.30;3.10;;;;;;5027294;28;20701;-64
2021/05/25 00:59:45;;;;;;;1.83;0.80;;;9.20;2.90;;;;;;5042501;28;20049;-63
2021/05/25 01:02:34;;;;;;;1.88;0.90;;;9.20;2.70;;;;;;5045286;28;20116;-63
2021/05/25 01:05:24;;;;;;;1.23;0.68;;;9.10;2.70;;;;;;5046060;28;20435;-64
2021/05/25 01:08:13;;;;;;;1.23;0.65;;;9.10;3.10;;;;;;5045629;28;20403;-64
2021/05/25 01:11:03;;;;;;;4.00;0.82;;;9.10;3.40;;;;;;5043543;28;20076;-64
2021/05/25 01:13:54;;;;;;;2.75;0.80;;;9.00;4.10;;;;;;5047263;28;20069;-62
2021/05/25 01:16:42;;;;;;;4.32;0.80;;;9.00;5.00;;;;;;5051302;28;20052;-63
2021/05/25 01:19:35;;;;;;;1.88;0.93;;;9.00;4.90;;;;;;5055333;28;20041;-64
2021/05/25 01:22:24;;;;;;;2.25;0.70;;;9.10;4.20;;;;;;5050939;28;20082;-64
2021/05/25 01:25:21;;;;;;;2.25;0.65;;;9.00;4.10;;;;;;5045216;28;20041;-64
2021/05/25 01:28:11;;;;;;;2.53;1.23;;;9.00;4.20;;;;;;5043837;28;20128;-64
2021/05/25 01:31:04;;;;;;;3.75;0.60;;;9.00;4.20;;;;;;5051903;28;20126;-64
2021/05/25 01:33:52;;;;;;;1.58;0.60;;;9.10;3.90;;;;;;5055693;28;20487;-64
2021/05/25 01:36:43;;;;;;;1.10;0.65;;;9.10;4.10;;;;;;5036632;28;20131;-64
2021/05/25 01:39:32;;;;;;;2.03;0.80;;;9.10;4.00;;;;;;5047154;28;20084;-64
2021/05/25 01:42:31;;;;;;;3.15;0.70;;;9.10;4.20;;;;;;5043641;28;21369;-64
2021/05/25 01:45:22;;;;;;;5.75;1.48;;;9.00;4.20;;;;;;5049929;28;20543;-64
2021/05/25 01:48:11;;;;;;;1.58;0.82;;;9.00;4.20;;;;;;5053017;28;20068;-64
2021/05/25 01:50:59;;;;;;;2.40;0.70;;;9.10;4.20;;;;;;5052059;28;20114;-64
2021/05/25 01:53:47;;;;;;;1.63;0.93;;;9.00;4.90;;;;;;5043176;28;20056;-63
2021/05/25 01:56:36;;;;;;;2.53;0.82;;;9.00;4.60;;;;;;5022666;28;20178;-64
2021/05/25 01:59:24;;;;;;;3.30;0.82;;;8.90;5.10;;;;;;5048916;28;20420;-65
2021/05/25 02:02:12;;;;;;;5.20;1.20;;;8.80;6.00;;;;;;5053861;28;20041;-63
2021/05/25 02:05:00;;;;;;;1.73;0.68;;;8.80;6.10;;;;;;5039738;28;20052;-64
2021/05/25 02:07:49;;;;;;;8.13;1.13;;;8.90;5.70;;;;;;5042916;28;20049;-64
2021/05/25 02:10:40;;;;;;;5.13;0.80;;;9.00;5.40;;;;;;5045083;28;20412;-63
2021/05/25 02:13:31;;;;;;;4.07;0.95;;;9.10;4.90;;;;;;5046390;28;20538;-63
2021/05/25 02:16:19;;;;;;;4.47;0.90;;;9.20;4.50;;;;;;5044100;28;20055;-63
2021/05/25 02:19:07;;;;;;;4.82;1.20;;;9.20;4.30;;;;;;5037433;28;20053;-64
2021/05/25 02:21:55;;;;;;;1.95;0.80;;;9.30;4.30;;;;;;5051733;28;20066;-63
2021/05/25 02:24:43;;;;;;;3.40;0.90;;;9.30;4.20;;;;;;5042295;28;20088;-64
2021/05/25 02:27:31;;;;;;;1.65;0.70;;;9.40;4.40;;;;;;5038129;28;20115;-64
2021/05/25 02:30:21;;;;;;;2.63;1.15;;;9.50;4.40;;;;;;5050032;28;20048;-64
2021/05/25 02:33:11;;;;;;;1.95;0.77;;;9.50;2.70;;;;;;5047731;28;20091;-64
2021/05/25 02:36:01;;;;;;;7.25;1.50;;;9.50;2.90;;;;;;5041888;28;20059;-65
2021/05/25 02:38:49;;;;;;;2.40;0.82;;;9.60;3.10;;;;;;5043556;28;20048;-64
2021/05/25 02:41:37;;;;;;;3.13;0.80;;;9.50;2.60;;;;;;5041687;28;20055;-65
2021/05/25 02:44:25;;;;;;;4.05;0.90;;;9.50;2.50;;;;;;5047262;28;20128;-65
2021/05/25 02:47:15;;;;;;;2.60;1.00;;;9.40;2.50;;;;;;5047519;28;20049;-64
2021/05/25 02:50:08;;;;;;;2.65;1.05;;;9.30;3.00;;;;;;5046524;28;20476;-63
2021/05/25 02:52:56;;;;;;;3.58;0.90;;;9.20;2.70;;;;;;5047466;28;20037;-64
2021/05/25 02:55:44;;;;;;;3.10;0.80;;;9.20;2.90;;;;;;5034578;28;20057;-64
2021/05/25 02:58:32;;;;;;;3.67;1.02;;;9.20;2.70;;;;;;5048887;28;20545;-63
2021/05/25 03:01:21;;;;;;;4.13;0.90;;;9.10;3.10;;;;;;5045050;28;20056;-64
2021/05/25 03:04:10;;;;;;;4.00;1.00;;;9.20;3.00;;;;;;5042831;28;20052;-63
2021/05/25 03:06:58;;;;;;;2.30;0.88;;;9.20;2.40;;;;;;5047089;28;20134;-63
2021/05/25 03:09:48;;;;;;;2.03;0.90;;;9.20;2.40;;;;;;5052642;28;20068;-63
2021/05/25 03:12:37;;;;;;;4.93;1.00;;;9.10;3.00;;;;;;5045405;28;20090;-64
2021/05/25 03:15:27;;;;;;;4.38;0.77;;;9.10;2.50;;;;;;5037158;28;20065;-64
2021/05/25 03:18:16;;;;;;;2.13;0.70;;;9.10;2.50;;;;;;5042834;28;20275;-63
2021/05/25 03:21:05;;;;;;;3.30;0.90;;;9.00;2.20;;;;;;5052455;28;20046;-63
2021/05/25 03:23:54;;;;;;;2.58;0.82;;;8.90;2.60;;;;;;5049698;28;20037;-64
2021/05/25 03:26:42;;;;;;;2.33;0.82;;;8.70;3.10;;;;;;5033491;28;20129;-64
2021/05/25 03:29:30;;;;;;;3.70;1.23;;;8.70;3.50;;;;;;5042563;28;20551;-65
2021/05/25 03:32:19;;;;;;;2.63;1.00;;;8.70;3.30;;;;;;5018942;28;20056;-65
2021/05/25 03:35:09;;;;;;;4.50;1.10;;;8.70;2.90;;;;;;5046472;28;20115;-65
2021/05/25 03:38:00;;;;;;;3.80;1.30;;;8.60;2.70;;;;;;5046235;28;20040;-63
2021/05/25 03:40:48;;;;;;;4.05;1.00;;;8.60;2.30;;;;;;5046707;28;20053;-64
2021/05/25 03:43:36;;;;;;;2.67;0.75;;;8.60;1.90;;;;;;5040868;28;20124;-65
2021/05/25 03:46:24;;;;;;;1.42;0.77;;;8.60;1.20;;;;;;5017930;28;20381;-64
2021/05/25 03:49:12;;;;;;;6.05;0.77;;;8.60;1.00;;;;;;5031150;28;20052;-64
2021/05/25 03:52:00;;;;;;;2.30;0.63;;;8.60;1.00;;;;;;5049353;28;20397;-64
2021/05/25 03:54:52;;;;;;;4.80;0.90;;;8.80;1.00;;;;;;5043689;28;20049;-64
2021/05/25 04:00:47;;;;;;;3.08;1.02;;;9.70;1.00;;;;;;5024805;28;20041;-65
2021/05/25 04:03:35;;;;;;;2.17;0.55;;;9.20;1.00;;;;;;5015231;28;20042;-64
2021/05/25 04:06:24;;;;;;;3.63;0.70;;;9.30;1.00;;;;;;5050258;28;21174;-64
2021/05/25 04:09:12;;;;;;;4.97;0.80;;;9.10;1.00;;;;;;5045753;28;20096;-65
2021/05/25 04:12:01;;;;;;;2.53;0.95;;;9.60;1.00;;;;;;5043642;28;20053;-64
2021/05/25 04:14:49;;;;;;;2.85;0.88;;;9.80;1.00;;;;;;5050202;28;20049;-64
2021/05/25 04:17:40;;;;;;;3.40;0.70;;;11.60;1.00;;;;;;5046915;28;20488;-64
2021/05/25 04:20:28;;;;;;;4.43;0.90;;;12.10;1.00;;;;;;5046840;28;20060;-65
2021/05/25 04:23:17;;;;;;;2.28;0.50;;;12.80;1.00;;;;;;5042282;28;20048;-64
2021/05/25 04:26:06;;;;;;;1.52;0.50;;;11.80;1.00;;;;;;5045259;28;20407;-64
2021/05/25 04:28:54;;;;;;;1.50;0.70;;;10.40;1.00;;;;;;5041430;28;20048;-64
2021/05/25 04:31:43;;;;;;;2.33;0.60;;;9.70;1.00;;;;;;5042396;28;20053;-64
2021/05/25 04:34:30;;;;;;;2.80;0.60;;;9.40;1.00;;;;;;5047875;28;20049;-64
2021/05/25 04:37:19;;;;;;;2.35;0.65;;;9.30;1.00;;;;;;5043492;28;20040;-65
2021/05/25 04:40:08;;;;;;;3.95;1.00;;;9.20;1.00;;;;;;5034358;28;20523;-64
2021/05/25 04:42:57;;;;;;;3.42;0.75;;;9.50;1.00;;;;;;5033022;28;20045;-64
2021/05/25 04:45:47;;;;;;;4.25;0.85;;;10.50;1.00;;;;;;5049392;28;20796;-64
2021/05/25 04:48:35;;;;;;;1.48;0.57;;;12.60;1.00;;;;;;5041546;28;20546;-64
2021/05/25 04:51:23;;;;;;;1.65;0.75;;;12.60;1.00;;;;;;5050093;28;20114;-65
2021/05/25 04:54:11;;;;;;;2.22;0.73;;;12.10;1.00;;;;;;5045069;28;20053;-63
2021/05/25 04:56:59;;;;;;;1.27;0.52;;;11.00;1.00;;;;;;5048655;28;20495;-63
2021/05/25 04:59:47;;;;;;;1.88;0.70;;;10.90;1.00;;;;;;5048668;28;20053;-65
2021/05/25 05:02:36;;;;;;;1.75;0.47;;;11.50;1.00;;;;;;5050861;28;20049;-64
2021/05/25 05:05:25;;;;;;;1.08;0.57;;;10.60;1.00;;;;;;5044222;28;20067;-64
2021/05/25 05:08:14;;;;;;;1.95;0.60;;;10.10;1.00;;;;;;5039968;28;20088;-65
2021/05/25 05:11:02;;;;;;;2.05;0.40;;;10.00;1.00;;;;;;5054815;28;20045;-64
2021/05/25 05:13:50;;;;;;;2.13;0.80;;;9.80;1.00;;;;;;5048548;28;20210;-64
2021/05/25 05:16:38;;;;;;;2.60;0.60;;;10.00;1.00;;;;;;5045287;28;20144;-65
2021/05/25 05:19:27;;;;;;;3.53;0.80;;;9.90;1.00;;;;;;5046498;28;20049;-65
2021/05/25 05:22:15;;;;;;;1.73;0.50;;;9.90;1.00;;;;;;5039676;28;20073;-65
2021/05/25 05:25:03;;;;;;;0.60;0.40;;;10.70;1.00;;;;;;5050592;28;20099;-65
2021/05/25 05:27:51;;;;;;;1.50;0.57;;;10.90;1.00;;;;;;5044392;28;20132;-65
2021/05/25 05:30:39;;;;;;;1.95;0.60;;;11.70;1.00;;;;;;5044226;28;20127;-63
2021/05/25 05:33:27;;;;;;;3.08;0.40;;;11.10;1.00;;;;;;5049173;28;20045;-64
2021/05/25 05:36:17;;;;;;;2.05;0.60;;;10.50;1.00;;;;;;5038328;28;20796;-64
2021/05/25 05:39:05;;;;;;;0.90;0.45;;;10.70;1.00;;;;;;5048748;28;20048;-64
2021/05/25 05:41:53;;;;;;;1.50;0.50;;;10.90;1.00;;;;;;5048575;28;20539;-63
2021/05/25 05:44:41;;;;;;;1.15;0.38;;;10.70;1.00;;;;;;5044003;28;20122;-64
2021/05/25 05:47:30;;;;;;;3.03;0.55;;;10.70;1.00;;;;;;5042758;28;20048;-65
2021/05/25 05:50:18;;;;;;;1.25;0.40;;;10.80;1.00;;;;;;5054887;28;20052;-63
2021/05/25 05:53:07;;;;;;;0.90;0.50;;;10.60;1.00;;;;;;5047250;28;20140;-64
2021/05/25 05:55:55;;;;;;;0.80;0.38;;;10.70;1.00;;;;;;5046127;28;20048;-65
2021/05/25 05:58:42;;;;;;;2.88;0.80;;;11.00;1.00;;;;;;5046285;28;20059;-64
2021/05/25 06:01:31;;;;;;;1.95;0.80;;;11.40;1.00;;;;;;5049281;28;20041;-65
2021/05/25 06:04:18;;;;;;;2.08;0.50;;;11.30;1.00;;;;;;5045888;28;20037;-64
2021/05/25 06:07:08;;;;;;;1.75;0.60;;;11.20;1.00;;;;;;5042180;28;20041;-64
2021/05/25 06:09:58;;;;;;;2.00;0.70;;;11.10;1.00;;;;;;5046460;28;20524;-63
2021/05/25 06:12:46;;;;;;;0.90;0.68;;;11.10;1.00;;;;;;5044824;28;20555;-64
2021/05/25 06:15:35;;;;;;;2.05;0.60;;;11.20;1.00;;;;;;5050569;28;20060;-65
2021/05/25 06:18:23;;;;;;;3.53;0.70;;;11.10;1.00;;;;;;5038852;28;20053;-64
2021/05/25 06:21:11;;;;;;;2.55;0.70;;;11.20;1.00;;;;;;5046123;28;20566;-64
2021/05/25 06:23:58;;;;;;;5.97;1.25;;;11.30;1.00;;;;;;5049327;28;20049;-64
2021/05/25 06:26:47;;;;;;;1.50;0.70;;;11.30;1.00;;;;;;5046539;28;20120;-64
2021/05/25 06:29:35;;;;;;;3.33;0.40;;;11.30;1.00;;;;;;5049031;28;20167;-64
2021/05/25 06:32:23;;;;;;;2.22;0.40;;;12.20;1.00;;;;;;5048243;28;20153;-63
2021/05/25 06:35:12;;;;;;;1.17;0.40;;;12.30;1.00;;;;;;5045348;28;20545;-63
2021/05/25 06:38:00;;;;;;;3.08;0.80;;;12.00;1.00;;;;;;5043243;28;20048;-63
2021/05/25 06:40:49;;;;;;;2.00;0.73;;;11.70;1.00;;;;;;5050790;28;20053;-64
2021/05/25 06:43:37;;;;;;;1.33;0.30;;;11.70;1.00;;;;;;5028984;28;20056;-63
2021/05/25 06:46:25;;;;;;;9.88;5.63;;;11.70;1.00;;;;;;5044944;28;20056;-63
2021/05/25 06:49:13;;;;;;;1.75;0.60;;;11.70;1.00;;;;;;5043623;28;20111;-64
2021/05/25 06:52:06;;;;;;;2.25;0.50;;;12.20;1.00;;;;;;5047706;28;20049;-63
2021/05/25 06:54:54;;;;;;;5.65;0.70;;;12.80;1.00;;;;;;5052785;28;20074;-63
2021/05/25 06:57:42;;;;;;;1.42;0.40;;;13.10;1.00;;;;;;5045513;28;20048;-63
2021/05/25 07:00:31;;;;;;;0.93;0.30;;;13.20;1.00;;;;;;5037141;28;20499;-63
2021/05/25 07:03:18;;;;;;;0.55;0.35;;;13.00;1.00;;;;;;5046105;28;20065;-64
2021/05/25 07:06:06;;;;;;;1.63;0.38;;;13.00;1.00;;;;;;5046584;28;20139;-63
2021/05/25 07:08:54;;;;;;;1.27;0.40;;;13.30;1.00;;;;;;5048363;28;20676;-64
2021/05/25 07:11:42;;;;;;;1.80;0.50;;;13.70;1.00;;;;;;5049059;28;20503;-63
2021/05/25 07:14:30;;;;;;;1.45;0.52;;;13.30;1.00;;;;;;5044391;28;20128;-64
2021/05/25 07:17:19;;;;;;;6.65;0.30;;;13.30;1.00;;;;;;5047963;28;20053;-63
2021/05/25 07:20:08;;;;;;;0.93;0.40;;;13.10;1.00;;;;;;5051080;28;20076;-64
2021/05/25 07:22:57;;;;;;;3.60;0.40;;;13.60;1.00;;;;;;5044447;28;20509;-64
2021/05/25 07:25:45;;;;;;;2.28;0.50;;;13.60;1.00;;;;;;5039530;28;20148;-64
2021/05/25 07:28:32;;;;;;;4.38;0.40;;;13.90;1.00;;;;;;5025625;28;20092;-63
2021/05/25 07:31:21;;;;;;;2.45;0.80;;;13.10;1.00;;;;;;5040041;28;20140;-64
2021/05/25 07:34:09;;;;;;;0.95;0.50;;;13.40;1.00;;;;;;5040080;28;20159;-63
2021/05/25 07:36:57;;;;;;;1.20;0.40;;;13.70;1.00;;;;;;5034077;28;20577;-64
2021/05/25 07:39:46;;;;;;;3.13;0.45;;;13.10;1.00;;;;;;5036027;28;20040;-63
2021/05/25 07:42:34;;;;;;;3.33;0.68;;;13.30;1.00;;;;;;5041846;28;20532;-63
2021/05/25 07:45:22;;;;;;;5.13;0.70;;;13.20;1.00;;;;;;5043888;28;20060;-63
2021/05/25 07:48:11;;;;;;;1.40;0.50;;;13.40;1.00;;;;;;5037916;28;20812;-62
2021/05/25 07:51:00;;;;;;;1.75;0.50;;;12.70;1.00;;;;;;5037578;28;20476;-63
2021/05/25 07:53:48;;;;;;;1.33;0.50;;;12.70;1.00;;;;;;5039237;28;20089;-63
2021/05/25 07:56:36;;;;;;;2.50;0.75;;;12.60;1.00;;;;;;5038395;28;20131;-64
2021/05/25 07:59:24;;;;;;;1.38;0.50;;;12.60;1.00;;;;;;5031065;28;20056;-64
2021/05/25 08:02:12;;;;;;;1.77;0.50;;;12.40;1.00;;;;;;5041633;28;20129;-64
2021/05/25 08:05:00;;;;;;;2.80;0.50;;;12.40;1.00;;;;;;5035629;28;20072;-63
2021/05/25 08:07:49;;;;;;;2.35;0.70;;;12.60;1.00;;;;;;5037412;28;20053;-63
2021/05/25 08:10:37;;;;;;;13.70;0.70;;;12.90;1.00;;;;;;5041466;28;20194;-64
2021/05/25 08:13:25;;;;;;;2.80;0.40;;;12.80;1.00;;;;;;5041963;28;20063;-63
2021/05/25 08:16:15;;;;;;;1.02;0.50;;;12.70;1.00;;;;;;5037374;28;20135;-63
2021/05/25 08:19:11;;;;;;;3.35;0.60;;;12.70;1.00;;;;;;5036379;28;20068;-63
2021/05/25 08:21:59;;;;;;;;;;;12.70;1.00;;;;;;5041039;28;20512;-64
2021/05/25 08:25:05;;;;;;;3.80;0.60;;;12.80;1.00;;;;;;5040518;28;19924;-64
2021/05/25 08:27:54;;;;;;;0.90;0.50;;;12.60;1.00;;;;;;5035186;28;20510;-64
2021/05/25 08:30:44;;;;;;;6.05;0.50;;;13.10;1.00;;;;;;5034293;28;20052;-64
2021/05/25 08:33:33;;;;;;;1.02;0.28;;;12.90;1.00;;;;;;5039389;28;20094;-64
2021/05/25 08:36:22;;;;;;;3.88;0.40;;;13.00;1.00;;;;;;5038707;28;20061;-63
2021/05/25 08:39:10;;;;;;;2.92;0.57;;;12.70;1.00;;;;;;5040719;28;20049;-63
2021/05/25 08:41:58;;;;;;;1.58;0.45;;;12.80;1.00;;;;;;5042575;28;20567;-65
2021/05/25 08:44:46;;;;;;;5.68;0.50;;;13.00;1.00;;;;;;5032291;28;20416;-65
2021/05/25 08:47:35;;;;;;;1.98;0.55;;;13.00;1.00;;;;;;5024701;28;20049;-64
2021/05/25 08:50:26;;;;;;;4.32;0.85;;;12.90;1.00;;;;;;5035601;28;20053;-62
2021/05/25 08:53:15;;;;;;;2.63;0.60;;;12.80;1.00;;;;;;5040013;28;20049;-64
2021/05/25 08:56:05;;;;;;;3.03;0.68;;;12.80;1.00;;;;;;5037229;28;20463;-64
2021/05/25 08:58:54;;;;;;;1.77;0.40;;;12.30;1.00;;;;;;5035310;28;20078;-60
2021/05/25 09:01:44;;;;;;;1.88;0.55;;;12.50;1.00;;;;;;5041715;28;20562;-60
2021/05/25 09:04:57;;;;;;;2.28;0.70;;;12.60;1.00;;;;;;5041859;28;20522;-60
2021/05/25 09:07:48;;;;;;;1.67;0.80;;;12.60;1.00;;;;;;5033878;28;20126;-59
2021/05/25 09:10:38;;;;;;;2.72;0.60;;;12.30;1.00;;;;;;5039027;28;20101;-60
2021/05/25 09:13:26;;;;;;;3.20;0.75;;;12.10;1.00;;;;;;5035665;28;20049;-60
2021/05/25 09:16:15;;;;;;;2.78;0.60;;;12.20;1.00;;;;;;5034261;28;20105;-59
2021/05/25 09:19:03;;;;;;;3.05;0.50;;;12.40;1.00;;;;;;5040921;28;20115;-60
2021/05/25 09:21:51;;;;;;;1.55;0.35;;;12.50;1.00;;;;;;5017360;28;20056;-61
2021/05/25 09:24:39;;;;;;;2.55;0.80;;;12.80;1.00;;;;;;5033724;28;20049;-60
2021/05/25 09:27:35;;;;;;;1.88;0.63;;;12.80;1.00;;;;;;5030207;28;20500;-61
2021/05/25 09:30:26;;;;;;;2.25;0.60;;;12.90;1.00;;;;;;5036324;28;20420;-62
2021/05/25 09:33:16;;;;;;;4.40;0.90;;;12.70;1.00;;;;;;5047179;28;20496;-62
2021/05/25 09:36:10;;;;;;;4.03;0.70;;;12.90;1.00;;;;;;5041743;28;20064;-62
2021/05/25 09:39:05;;;;;;;3.22;1.05;;;12.70;1.00;;;;;;5039166;28;20135;-62
2021/05/25 09:41:55;;;;;;;1.10;0.40;;;12.70;1.00;;;;;;5042830;28;20053;-63
2021/05/25 09:44:58;;;;;;;1.58;0.32;;;13.00;1.00;;;;;;5043420;28;20548;-63
2021/05/25 09:47:53;;;;;;;1.02;0.47;;;13.10;1.00;;;;;;5040035;28;20049;-62
2021/05/25 09:50:41;;;;;;;2.85;0.80;;;13.30;1.00;;;;;;5047411;28;20040;-61
2021/05/25 09:53:31;;;;;;;1.42;0.77;;;13.50;1.00;;;;;;5040236;28;20488;-62
2021/05/25 09:56:23;;;;;;;3.55;0.60;;;13.70;1.00;;;;;;5036171;28;20056;-63
2021/05/25 09:59:28;;;;;;;5.13;1.20;;;14.20;1.00;;;;;;5040081;28;20130;-63
2021/05/25 10:02:17;;;;;;;1.90;0.70;;;13.70;1.00;;;;;;5031354;28;20045;-63
2021/05/25 10:05:07;;;;;;;1.77;0.60;;;13.20;1.00;;;;;;5026279;28;20147;-63
2021/05/25 10:07:56;;;;;;;1.90;0.60;;;13.30;1.00;;;;;;5035795;28;20571;-64
2021/05/25 10:10:44;;;;;;;3.75;0.60;;;13.50;1.00;;;;;;5029491;28;20052;-63
2021/05/25 10:13:33;;;;;;;2.15;0.60;;;13.50;1.00;;;;;;5042269;28;20577;-63
2021/05/25 10:16:23;;;;;;;3.25;0.70;;;13.10;1.00;;;;;;5031234;28;20198;-62
2021/05/25 10:19:26;;;;;;;4.40;0.90;;;13.40;1.00;;;;;;5043274;28;20649;-63
2021/05/25 10:22:14;;;;;;;3.72;0.60;;;13.90;1.00;;;;;;5030880;28;20048;-62
2021/05/25 10:25:06;;;;;;;2.47;0.60;;;13.30;1.00;;;;;;5039206;28;20049;-63
2021/05/25 10:27:54;;;;;;;2.70;0.68;;;12.50;1.00;;;;;;5037220;28;20133;-62
2021/05/25 10:30:44;;;;;;;2.13;0.80;;;12.20;1.00;;;;;;5046426;28;20067;-63
2021/05/25 10:33:33;;;;;;;4.30;0.80;;;12.00;1.00;;;;;;5043027;28;20056;-62
2021/05/25 10:36:20;;;;;;;3.05;1.00;;;12.10;1.00;;;;;;5037503;28;20033;-61
2021/05/25 10:39:08;;;;;;;3.35;1.10;;;11.30;1.00;;;;;;5040321;28;20076;-62
2021/05/25 10:42:24;;;;;;;3.67;1.30;;;11.40;1.00;;;;;;5043932;28;20138;-62
2021/05/25 10:45:17;;;;;;;2.40;1.20;;;12.00;1.00;;;;;;5042671;28;20621;-62
2021/05/25 10:48:07;;;;;;;2.28;0.70;;;12.20;1.00;;;;;;5034261;28;20516;-62
2021/05/25 10:50:55;;;;;;;2.47;0.93;;;12.00;1.00;;;;;;5039846;28;21115;-62
2021/05/25 10:53:43;;;;;;;6.47;2.25;;;12.00;1.00;;;;;;5038578;28;20049;-62
2021/05/25 10:56:36;;;;;;;4.05;0.68;;;12.60;1.00;;;;;;5039573;28;20053;-60
2021/05/25 10:59:25;;;;;;;1.35;0.47;;;12.10;1.00;;;;;;5043490;28;20443;-60
2021/05/25 11:02:13;;;;;;;1.10;0.63;;;12.40;1.00;;;;;;5043648;28;20154;-60
2021/05/25 11:05:01;;;;;;;1.77;0.70;;;12.20;1.00;;;;;;5038492;28;20113;-60
2021/05/25 11:07:50;;;;;;;2.47;0.70;;;12.90;1.00;;;;;;5038091;28;20138;-59
2021/05/25 11:10:40;;;;;;;2.42;0.85;;;12.60;1.00;;;;;;5044416;28;20673;-59
2021/05/25 11:13:30;;;;;;;2.88;0.60;;;13.10;1.00;;;;;;5039921;28;20060;-62
2021/05/25 11:16:28;;;;;;;3.08;0.70;;;12.90;1.00;;;;;;5037016;28;20147;-63
2021/05/25 11:22:38;;;;;;;2.38;0.98;;;12.60;1.00;;;;;;5034242;28;20576;-62
2021/05/25 11:25:38;;;;;;;2.28;0.80;;;12.10;1.00;;;;;;5037694;28;20045;-63
2021/05/25 11:29:14;;;;;;;4.68;1.40;;;12.80;1.00;;;;;;5031007;28;20543;-63
2021/05/25 11:32:07;;;;;;;1.38;0.57;;;12.90;1.00;;;;;;5043763;28;20106;-63
2021/05/25 11:34:56;;;;;;;0.90;0.52;;;13.40;1.00;;;;;;5038334;28;20048;-65
2021/05/25 11:37:46;;;;;;;0.90;0.52;;;13.50;1.00;;;;;;5036097;28;20072;-64
2021/05/25 11:40:36;;;;;;;2.83;0.60;;;13.40;1.00;;;;;;5038308;28;20053;-63
2021/05/25 11:43:24;;;;;;;0.88;0.52;;;13.70;1.00;;;;;;5011742;28;20045;-63
2021/05/25 11:46:12;;;;;;;2.20;0.70;;;14.00;1.00;;;;;;5038337;28;20055;-63
2021/05/25 11:49:04;;;;;;;4.38;0.73;;;14.10;1.00;;;;;;5037633;28;20557;-64
2021/05/25 11:51:52;;;;;;;3.22;0.85;;;14.40;1.00;;;;;;5036565;28;20121;-64
2021/05/25 11:54:41;;;;;;;2.85;0.80;;;14.70;1.00;;;;;;5043702;28;20045;-65
2021/05/25 11:57:33;;;;;;;5.30;0.88;;;14.70;1.00;;;;;;5036012;28;20669;-63
2021/05/25 12:00:24;;;;;;;5.47;0.80;;;14.60;1.00;;;;;;5037584;28;20048;-63
2021/05/25 12:03:12;;;;;;;3.28;0.60;;;14.50;1.00;;;;;;5025575;28;20040;-64
2021/05/25 12:06:01;;;;;;;2.38;0.95;;;14.80;1.00;;;;;;5037921;28;20151;-64
2021/05/25 12:08:48;;;;;;;3.70;0.80;;;15.50;1.00;;;;;;5043214;28;20195;-64
2021/05/25 12:11:37;;;;;;;5.25;0.80;;;15.10;1.00;;;;;;5045521;28;20057;-63
2021/05/25 12:14:30;;;;;;;3.83;1.35;;;15.60;1.00;;;;;;5034982;28;20056;-64
2021/05/25 12:17:22;;;;;;;2.72;0.95;;;15.30;1.00;;;;;;5034509;28;20527;-62
2021/05/25 12:20:17;;;;;;;4.88;0.98;;;15.50;1.00;;;;;;5038753;28;20049;-63
2021/05/25 12:23:07;;;;;;;;;;;15.00;1.00;;;;;;5040482;28;20048;-64
2021/05/25 12:25:57;;;;;;;6.45;2.03;;;15.60;1.00;;;;;;5037817;28;19978;-63
2021/05/25 12:28:48;;;;;;;4.40;1.42;;;14.90;1.00;;;;;;5035102;28;20053;-64
2021/05/25 12:31:36;;;;;;;4.47;0.93;;;15.40;1.00;;;;;;5031453;28;20099;-64
2021/05/25 12:34:24;;;;;;;4.57;0.77;;;15.30;1.00;;;;;;5026118;28;20246;-65
2021/05/25 12:37:19;;;;;;;3.05;1.00;;;14.80;1.00;;;;;;5037061;28;20080;-65
2021/05/25 12:40:10;;;;;;;1.67;0.85;;;15.50;1.00;;;;;;5036966;28;20079;-64
2021/05/25 12:42:58;;;;;;;2.30;0.70;;;16.00;1.00;;;;;;5007052;28;20137;-65
2021/05/25 12:45:46;;;;;;;5.43;1.27;;;15.90;1.00;;;;;;5037063;28;20366;-65
2021/05/25 12:48:36;;;;;;;2.78;0.77;;;16.20;1.00;;;;;;5032213;28;20153;-64
2021/05/25 12:51:26;;;;;;;1.98;0.90;;;16.00;1.00;;;;;;5037839;28;20060;-64
2021/05/25 12:54:17;;;;;;;5.13;1.00;;;16.20;1.00;;;;;;5034647;28;20165;-64
2021/05/25 12:57:06;;;;;;;3.10;0.73;;;16.80;1.00;;;;;;5037023;28;20481;-64
2021/05/25 13:00:02;;;;;;;9.05;0.90;;;17.10;1.00;;;;;;5027877;28;20053;-64
2021/05/25 13:02:51;;;;;;;5.25;0.63;;;17.10;1.00;;;;;;5038910;28;20588;-64
2021/05/25 13:05:41;;;;;;;3.15;0.73;;;15.80;1.00;;;;;;5039838;28;20045;-63
2021/05/25 13:08:34;;;;;;;3.08;0.50;;;16.00;1.00;;;;;;5036530;28;20060;-65
2021/05/25 13:11:23;;;;;;;2.30;0.65;;;16.10;1.00;;;;;;5040513;28;20049;-64
2021/05/25 13:14:19;;;;;;;2.53;0.60;;;15.50;1.00;;;;;;5028414;28;20053;-63
2021/05/25 13:17:10;;;;;;;2.08;0.68;;;15.90;1.00;;;;;;5041203;28;20052;-64
2021/05/25 13:19:58;;;;;;;4.10;0.60;;;15.70;1.00;;;;;;5039083;28;20109;-64
2021/05/25 13:22:46;;;;;;;1.95;0.55;;;15.60;1.00;;;;;;5024548;28;20216;-65
2021/05/25 13:25:35;;;;;;;4.00;0.80;;;15.60;1.00;;;;;;5039648;28;20037;-65
2021/05/25 13:28:23;;;;;;;3.47;0.70;;;15.80;1.00;;;;;;5042506;28;20067;-65
2021/05/25 13:31:20;;;;;;;5.25;0.90;;;15.40;1.00;;;;;;5046216;28;20060;-64
2021/05/25 13:34:09;;;;;;;5.60;0.90;;;15.40;1.00;;;;;;5039160;28;20055;-63
2021/05/25 13:36:58;;;;;;;4.05;1.95;;;15.80;1.00;;;;;;5035026;28;20045;-64
2021/05/25 13:39:49;;;;;;;2.35;0.75;;;15.80;1.00;;;;;;5041364;28;20053;-64
2021/05/25 13:42:37;;;;;;;4.13;0.90;;;15.60;1.00;;;;;;5042693;28;20807;-65
2021/05/25 13:45:25;;;;;;;2.45;0.80;;;15.50;1.00;;;;;;5037791;28;20068;-65
2021/05/25 13:48:13;;;;;;;2.80;0.60;;;15.70;1.00;;;;;;5035725;28;20053;-64
2021/05/25 13:51:02;;;;;;;2.88;0.98;;;15.90;1.00;;;;;;5044314;28;20484;-63
2021/05/25 13:53:50;;;;;;;2.80;0.80;;;15.60;1.00;;;;;;5029831;28;20415;-64
2021/05/25 13:56:40;;;;;;;3.38;0.70;;;15.60;1.00;;;;;;5026932;28;20488;-65
2021/05/25 13:59:35;;;;;;;4.32;0.82;;;15.90;1.00;;;;;;5036541;28;20061;-65
2021/05/25 14:02:23;;;;;;;6.80;0.95;;;15.90;1.00;;;;;;5038058;28;20049;-64
2021/05/25 14:05:14;;;;;;;2.88;0.88;;;15.80;1.00;;;;;;5040604;28;20073;-64
2021/05/25 14:08:02;;;;;;;3.17;0.70;;;16.20;1.00;;;;;;5039097;28;20139;-65
2021/05/25 14:10:50;;;;;;;1.75;0.70;;;15.80;1.00;;;;;;5040676;28;20061;-64
2021/05/25 14:13:38;;;;;;;1.90;0.70;;;16.00;1.00;;;;;;5046693;28;20100;-65
2021/05/25 14:16:26;;;;;;;2.45;0.90;;;16.50;1.00;;;;;;5035929;28;20053;-65
2021/05/25 14:19:14;;;;;;;2.60;0.65;;;15.90;1.00;;;;;;5032838;28;20049;-63
2021/05/25 14:22:03;;;;;;;2.50;0.70;;;16.00;1.00;;;;;;5046505;28;20045;-63
2021/05/25 14:24:52;;;;;;;5.63;0.88;;;16.60;1.00;;;;;;5041144;28;20052;-66
2021/05/25 14:27:40;;;;;;;1.88;0.60;;;16.80;1.00;;;;;;5035206;28;20060;-65
2021/05/25 14:30:28;;;;;;;2.50;0.80;;;16.30;1.00;;;;;;5040854;28;20813;-64
2021/05/25 14:33:18;;;;;;;3.40;0.98;;;16.50;1.00;;;;;;5040438;28;20080;-66
2021/05/25 14:36:06;;;;;;;4.20;0.73;;;16.80;1.00;;;;;;5039535;28;20564;-66
2021/05/25 14:38:55;;;;;;;1.90;0.60;;;16.70;1.00;;;;;;5016480;28;20052;-65
2021/05/25 14:41:43;;;;;;;2.60;0.63;;;16.70;1.00;;;;;;5040532;28;20175;-64
2021/05/25 14:44:34;;;;;;;4.38;1.00;;;16.40;1.00;;;;;;5042268;28;20048;-65
2021/05/25 14:47:22;;;;;;;2.45;0.88;;;17.10;1.00;;;;;;5044019;28;20099;-65
2021/05/25 14:50:23;;;;;;;1.98;0.55;;;17.00;1.00;;;;;;5041676;28;20059;-64
2021/05/25 14:53:16;;;;;;;5.53;0.80;;;17.00;1.00;;;;;;5027553;28;20048;-65
2021/05/25 14:56:09;;;;;;;2.90;0.60;;;17.60;1.00;;;;;;5043996;28;20515;-65
2021/05/25 14:58:58;;;;;;;2.20;0.88;;;17.10;1.00;;;;;;5035822;28;20055;-64
2021/05/25 15:01:51;;;;;;;2.33;0.47;;;17.30;1.00;;;;;;5039291;28;20369;-64
2021/05/25 15:04:44;;;;;;;5.20;0.80;;;17.10;1.00;;;;;;5025182;28;20124;-65